sensor_id;sensor_type;location;lat;lon;timestamp;pressure;altitude;pressure_sealevel;temperature;humidity
72308;BME280;60257;42.638;23.376;2023-04-27T00:01:18;94277.34;;;7.44;52.99
72308;BME280;60257;42.638;23.376;2023-04-27T00:03:44;94292.16;;;7.43;52.55
72308;BME280;60257;42.638;23.376;2023-04-27T00:06:10;94280.19;;;7.35;52.66
72308;BME280;60257;42.638;23.376;2023-04-27T00:08:36;94283.16;;;7.42;52.69
72308;BME280;60257;42.638;23.376;2023-04-27T00:11:02;94289.75;;;7.41;52.72
72308;BME280;60257;42.638;23.376;2023-04-27T00:13:27;94261.44;;;7.33;52.80
72308;BME280;60257;42.638;23.376;2023-04-27T00:15:53;94294.44;;;7.20;52.97
72308;BME280;60257;42.638;23.376;2023-04-27T00:18:19;94293.69;;;7.31;52.71
72308;BME280;60257;42.638;23.376;2023-04-27T00:20:44;94284.59;;;7.27;52.73
72308;BME280;60257;42.638;23.376;2023-04-27T00:23:10;94285.47;;;7.19;52.67
72308;BME280;60257;42.638;23.376;2023-04-27T00:25:35;94298.09;;;7.24;52.85
72308;BME280;60257;42.638;23.376;2023-04-27T00:28:01;94298.16;;;7.15;53.12
72308;BME280;60257;42.638;23.376;2023-04-27T00:30:27;94292.44;;;7.08;53.08
72308;BME280;60257;42.638;23.376;2023-04-27T00:32:52;94299.84;;;7.08;53.25
72308;BME280;60257;42.638;23.376;2023-04-27T00:35:17;94285.53;;;6.90;53.30
72308;BME280;60257;42.638;23.376;2023-04-27T00:37:43;94295.47;;;6.94;53.09
72308;BME280;60257;42.638;23.376;2023-04-27T00:40:09;94292.59;;;6.91;53.37
72308;BME280;60257;42.638;23.376;2023-04-27T00:42:34;94303.53;;;6.82;53.19
72308;BME280;60257;42.638;23.376;2023-04-27T00:45:00;94297.78;;;6.84;53.29
72308;BME280;60257;42.638;23.376;2023-04-27T00:47:27;94297.03;;;6.75;53.56
72308;BME280;60257;42.638;23.376;2023-04-27T00:49:54;94299.81;;;6.66;53.85
72308;BME280;60257;42.638;23.376;2023-04-27T00:52:20;94307.00;;;6.71;53.88
72308;BME280;60257;42.638;23.376;2023-04-27T00:54:48;94313.13;;;6.68;53.78
72308;BME280;60257;42.638;23.376;2023-04-27T00:57:14;94320.53;;;6.58;53.87
72308;BME280;60257;42.638;23.376;2023-04-27T00:59:40;94306.16;;;6.58;53.82
72308;BME280;60257;42.638;23.376;2023-04-27T01:02:05;94314.00;;;6.51;54.24
72308;BME280;60257;42.638;23.376;2023-04-27T01:04:31;94319.19;;;6.44;54.20
72308;BME280;60257;42.638;23.376;2023-04-27T01:06:58;94325.06;;;6.54;53.94
72308;BME280;60257;42.638;23.376;2023-04-27T01:09:23;94322.06;;;6.47;53.97
72308;BME280;60257;42.638;23.376;2023-04-27T01:11:49;94324.19;;;6.42;54.32
72308;BME280;60257;42.638;23.376;2023-04-27T01:14:14;94320.97;;;6.40;54.48
72308;BME280;60257;42.638;23.376;2023-04-27T01:16:41;94324.06;;;6.30;55.03
72308;BME280;60257;42.638;23.376;2023-04-27T01:19:07;94321.78;;;6.40;54.47
72308;BME280;60257;42.638;23.376;2023-04-27T01:21:33;94324.69;;;6.35;54.69
72308;BME280;60257;42.638;23.376;2023-04-27T01:23:58;94313.22;;;6.21;54.83
72308;BME280;60257;42.638;23.376;2023-04-27T01:26:24;94318.38;;;6.14;55.23
72308;BME280;60257;42.638;23.376;2023-04-27T01:28:49;94318.41;;;6.05;55.38
72308;BME280;60257;42.638;23.376;2023-04-27T01:31:15;94330.75;;;6.11;55.01
72308;BME280;60257;42.638;23.376;2023-04-27T01:33:41;94334.75;;;6.05;55.62
72308;BME280;60257;42.638;23.376;2023-04-27T01:36:08;94318.91;;;6.07;55.18
72308;BME280;60257;42.638;23.376;2023-04-27T01:38:34;94323.41;;;6.03;55.66
72308;BME280;60257;42.638;23.376;2023-04-27T01:41:00;94323.06;;;6.05;55.25
72308;BME280;60257;42.638;23.376;2023-04-27T01:43:29;94333.13;;;6.13;54.42
72308;BME280;60257;42.638;23.376;2023-04-27T01:46:03;94327.88;;;6.08;55.02
72308;BME280;60257;42.638;23.376;2023-04-27T01:48:29;94321.63;;;6.07;54.79
72308;BME280;60257;42.638;23.376;2023-04-27T01:50:54;94336.34;;;6.06;54.92
72308;BME280;60257;42.638;23.376;2023-04-27T01:53:20;94328.22;;;5.98;54.92
72308;BME280;60257;42.638;23.376;2023-04-27T01:55:46;94323.88;;;5.97;55.06
72308;BME280;60257;42.638;23.376;2023-04-27T01:58:11;94319.72;;;5.99;54.55
72308;BME280;60257;42.638;23.376;2023-04-27T02:00:36;94333.34;;;5.99;54.64
72308;BME280;60257;42.638;23.376;2023-04-27T02:03:02;94332.69;;;6.02;54.73
72308;BME280;60257;42.638;23.376;2023-04-27T02:05:27;94333.34;;;5.99;54.80
72308;BME280;60257;42.638;23.376;2023-04-27T02:07:53;94342.00;;;5.93;55.00
72308;BME280;60257;42.638;23.376;2023-04-27T02:10:19;94334.63;;;5.85;55.27
72308;BME280;60257;42.638;23.376;2023-04-27T02:12:47;94340.56;;;5.95;55.08
72308;BME280;60257;42.638;23.376;2023-04-27T02:15:12;94344.72;;;5.93;54.96
72308;BME280;60257;42.638;23.376;2023-04-27T02:17:38;94340.09;;;5.93;54.87
72308;BME280;60257;42.638;23.376;2023-04-27T02:20:05;94346.16;;;5.81;55.22
72308;BME280;60257;42.638;23.376;2023-04-27T02:22:35;94340.41;;;5.74;55.32
72308;BME280;60257;42.638;23.376;2023-04-27T02:25:01;94338.81;;;5.73;55.32
72308;BME280;60257;42.638;23.376;2023-04-27T02:27:26;94357.22;;;5.76;55.17
72308;BME280;60257;42.638;23.376;2023-04-27T02:29:52;94353.09;;;5.70;55.36
72308;BME280;60257;42.638;23.376;2023-04-27T02:32:17;94342.19;;;5.79;55.13
72308;BME280;60257;42.638;23.376;2023-04-27T02:34:43;94346.97;;;5.82;55.06
72308;BME280;60257;42.638;23.376;2023-04-27T02:37:09;94342.00;;;5.84;54.71
72308;BME280;60257;42.638;23.376;2023-04-27T02:39:34;94343.91;;;5.84;54.75
72308;BME280;60257;42.638;23.376;2023-04-27T02:42:00;94338.03;;;5.73;55.51
72308;BME280;60257;42.638;23.376;2023-04-27T02:44:27;94342.50;;;5.86;54.55
72308;BME280;60257;42.638;23.376;2023-04-27T02:46:52;94331.00;;;5.80;54.93
72308;BME280;60257;42.638;23.376;2023-04-27T02:49:17;94332.94;;;5.71;54.90
72308;BME280;60257;42.638;23.376;2023-04-27T02:51:43;94339.47;;;5.79;54.83
72308;BME280;60257;42.638;23.376;2023-04-27T02:54:08;94328.63;;;5.62;55.07
72308;BME280;60257;42.638;23.376;2023-04-27T02:56:34;94344.44;;;5.77;54.88
72308;BME280;60257;42.638;23.376;2023-04-27T02:58:59;94340.91;;;5.76;54.88
72308;BME280;60257;42.638;23.376;2023-04-27T03:01:25;94355.00;;;5.78;54.65
72308;BME280;60257;42.638;23.376;2023-04-27T03:03:50;94353.69;;;5.85;54.42
72308;BME280;60257;42.638;23.376;2023-04-27T03:06:16;94359.16;;;5.76;54.87
72308;BME280;60257;42.638;23.376;2023-04-27T03:08:41;94361.88;;;5.76;54.65
72308;BME280;60257;42.638;23.376;2023-04-27T03:11:06;94352.59;;;5.68;54.89
72308;BME280;60257;42.638;23.376;2023-04-27T03:13:33;94355.00;;;5.70;54.80
72308;BME280;60257;42.638;23.376;2023-04-27T03:16:11;94354.41;;;5.64;54.80
72308;BME280;60257;42.638;23.376;2023-04-27T03:18:38;94365.09;;;5.69;54.38
72308;BME280;60257;42.638;23.376;2023-04-27T03:21:08;94365.41;;;5.76;54.33
72308;BME280;60257;42.638;23.376;2023-04-27T03:23:35;94376.75;;;5.78;54.34
72308;BME280;60257;42.638;23.376;2023-04-27T03:26:12;94352.13;;;5.58;54.47
72308;BME280;60257;42.638;23.376;2023-04-27T03:28:38;94370.53;;;5.69;54.56
72308;BME280;60257;42.638;23.376;2023-04-27T03:31:12;94372.91;;;5.79;54.09
72308;BME280;60257;42.638;23.376;2023-04-27T03:33:38;94375.00;;;5.74;54.34
72308;BME280;60257;42.638;23.376;2023-04-27T03:36:05;94379.00;;;5.68;54.20
72308;BME280;60257;42.638;23.376;2023-04-27T03:38:31;94382.22;;;5.61;54.51
72308;BME280;60257;42.638;23.376;2023-04-27T03:40:57;94383.34;;;5.69;54.20
72308;BME280;60257;42.638;23.376;2023-04-27T03:43:23;94387.34;;;5.63;54.29
72308;BME280;60257;42.638;23.376;2023-04-27T03:45:49;94374.25;;;5.56;54.75
72308;BME280;60257;42.638;23.376;2023-04-27T03:48:15;94387.34;;;5.63;54.45
72308;BME280;60257;42.638;23.376;2023-04-27T03:50:42;94388.28;;;5.67;54.41
72308;BME280;60257;42.638;23.376;2023-04-27T03:53:07;94380.63;;;5.52;54.92
72308;BME280;60257;42.638;23.376;2023-04-27T03:55:33;94393.28;;;5.56;54.86
72308;BME280;60257;42.638;23.376;2023-04-27T03:57:58;94388.47;;;5.62;54.88
72308;BME280;60257;42.638;23.376;2023-04-27T04:00:24;94395.13;;;5.81;54.12
72308;BME280;60257;42.638;23.376;2023-04-27T04:02:49;94399.34;;;5.88;53.41
72308;BME280;60257;42.638;23.376;2023-04-27T04:05:17;94411.03;;;5.88;53.74
72308;BME280;60257;42.638;23.376;2023-04-27T04:07:43;94418.03;;;5.89;53.47
72308;BME280;60257;42.638;23.376;2023-04-27T04:10:09;94420.44;;;5.91;53.50
72308;BME280;60257;42.638;23.376;2023-04-27T04:12:35;94416.94;;;5.90;53.64
72308;BME280;60257;42.638;23.376;2023-04-27T04:15:02;94430.03;;;5.97;53.69
72308;BME280;60257;42.638;23.376;2023-04-27T04:17:27;94431.63;;;6.06;52.93
72308;BME280;60257;42.638;23.376;2023-04-27T04:19:53;94433.84;;;6.13;52.79
72308;BME280;60257;42.638;23.376;2023-04-27T04:22:18;94437.34;;;6.22;52.61
72308;BME280;60257;42.638;23.376;2023-04-27T04:24:43;94432.19;;;6.29;52.07
72308;BME280;60257;42.638;23.376;2023-04-27T04:27:09;94431.53;;;6.41;52.21
72308;BME280;60257;42.638;23.376;2023-04-27T04:29:34;94434.84;;;6.55;51.45
72308;BME280;60257;42.638;23.376;2023-04-27T04:32:00;94427.69;;;6.42;51.31
72308;BME280;60257;42.638;23.376;2023-04-27T04:34:25;94419.56;;;6.25;51.61
72308;BME280;60257;42.638;23.376;2023-04-27T04:36:51;94438.09;;;6.40;51.85
72308;BME280;60257;42.638;23.376;2023-04-27T04:39:17;94438.06;;;6.48;51.59
72308;BME280;60257;42.638;23.376;2023-04-27T04:41:46;94447.03;;;6.49;51.17
72308;BME280;60257;42.638;23.376;2023-04-27T04:44:11;94433.94;;;6.42;51.14
72308;BME280;60257;42.638;23.376;2023-04-27T04:46:37;94449.75;;;6.57;51.02
72308;BME280;60257;42.638;23.376;2023-04-27T04:49:03;94449.31;;;6.76;50.36
72308;BME280;60257;42.638;23.376;2023-04-27T04:51:29;94450.47;;;6.67;50.90
72308;BME280;60257;42.638;23.376;2023-04-27T04:53:55;94462.84;;;6.64;50.84
72308;BME280;60257;42.638;23.376;2023-04-27T04:56:20;94460.47;;;6.54;50.75
72308;BME280;60257;42.638;23.376;2023-04-27T04:58:46;94464.47;;;6.56;51.22
72308;BME280;60257;42.638;23.376;2023-04-27T05:01:11;94471.47;;;6.66;51.34
72308;BME280;60257;42.638;23.376;2023-04-27T05:03:37;94462.22;;;6.58;51.33
72308;BME280;60257;42.638;23.376;2023-04-27T05:06:15;94475.28;;;6.74;50.59
72308;BME280;60257;42.638;23.376;2023-04-27T05:08:40;94472.28;;;6.67;50.48
72308;BME280;60257;42.638;23.376;2023-04-27T05:11:06;94475.66;;;6.72;50.71
72308;BME280;60257;42.638;23.376;2023-04-27T05:13:31;94468.56;;;6.80;50.45
72308;BME280;60257;42.638;23.376;2023-04-27T05:15:57;94480.09;;;6.77;50.29
72308;BME280;60257;42.638;23.376;2023-04-27T05:18:31;94471.69;;;6.90;49.86
72308;BME280;60257;42.638;23.376;2023-04-27T05:20:57;94479.41;;;7.18;49.53
72308;BME280;60257;42.638;23.376;2023-04-27T05:23:23;94479.97;;;7.32;48.55
72308;BME280;60257;42.638;23.376;2023-04-27T05:25:48;94484.91;;;7.09;49.30
72308;BME280;60257;42.638;23.376;2023-04-27T05:28:14;94498.28;;;7.02;49.81
72308;BME280;60257;42.638;23.376;2023-04-27T05:30:40;94483.63;;;7.07;49.86
72308;BME280;60257;42.638;23.376;2023-04-27T05:33:06;94467.28;;;7.07;49.42
72308;BME280;60257;42.638;23.376;2023-04-27T05:35:32;94483.78;;;7.10;49.35
72308;BME280;60257;42.638;23.376;2023-04-27T05:37:57;94493.81;;;7.27;49.38
72308;BME280;60257;42.638;23.376;2023-04-27T05:40:23;94497.72;;;7.17;49.09
72308;BME280;60257;42.638;23.376;2023-04-27T05:42:49;94495.50;;;7.11;49.21
72308;BME280;60257;42.638;23.376;2023-04-27T05:45:15;94501.06;;;7.14;48.88
72308;BME280;60257;42.638;23.376;2023-04-27T05:47:40;94493.34;;;6.95;49.77
72308;BME280;60257;42.638;23.376;2023-04-27T05:50:06;94493.56;;;7.11;49.17
72308;BME280;60257;42.638;23.376;2023-04-27T05:52:32;94490.31;;;7.18;49.58
72308;BME280;60257;42.638;23.376;2023-04-27T05:54:58;94506.59;;;7.35;48.95
72308;BME280;60257;42.638;23.376;2023-04-27T05:57:24;94494.81;;;7.14;49.35
72308;BME280;60257;42.638;23.376;2023-04-27T05:59:50;94492.25;;;7.17;49.31
72308;BME280;60257;42.638;23.376;2023-04-27T06:02:16;94510.75;;;7.12;49.76
72308;BME280;60257;42.638;23.376;2023-04-27T06:04:42;94508.00;;;7.12;49.79
72308;BME280;60257;42.638;23.376;2023-04-27T06:07:11;94500.72;;;7.24;49.36
72308;BME280;60257;42.638;23.376;2023-04-27T06:09:37;94493.41;;;7.37;49.58
72308;BME280;60257;42.638;23.376;2023-04-27T06:12:04;94491.03;;;7.56;49.20
72308;BME280;60257;42.638;23.376;2023-04-27T06:14:31;94495.69;;;7.77;48.32
72308;BME280;60257;42.638;23.376;2023-04-27T06:16:56;94505.16;;;7.58;49.37
72308;BME280;60257;42.638;23.376;2023-04-27T06:19:22;94494.03;;;7.63;48.49
72308;BME280;60257;42.638;23.376;2023-04-27T06:21:47;94505.34;;;7.53;49.06
72308;BME280;60257;42.638;23.376;2023-04-27T06:24:13;94503.50;;;7.37;49.56
72308;BME280;60257;42.638;23.376;2023-04-27T06:26:38;94502.00;;;7.27;50.26
72308;BME280;60257;42.638;23.376;2023-04-27T06:29:04;94508.47;;;7.43;50.15
72308;BME280;60257;42.638;23.376;2023-04-27T06:31:34;94486.06;;;7.58;49.42
72308;BME280;60257;42.638;23.376;2023-04-27T06:34:00;94498.16;;;7.49;50.17
72308;BME280;60257;42.638;23.376;2023-04-27T06:36:25;94494.81;;;7.85;49.59
72308;BME280;60257;42.638;23.376;2023-04-27T06:38:55;94505.88;;;8.09;49.00
72308;BME280;60257;42.638;23.376;2023-04-27T06:41:24;94505.03;;;8.29;48.46
72308;BME280;60257;42.638;23.376;2023-04-27T06:43:50;94498.72;;;8.17;48.55
72308;BME280;60257;42.638;23.376;2023-04-27T06:46:16;94505.13;;;8.21;48.29
72308;BME280;60257;42.638;23.376;2023-04-27T06:48:41;94485.06;;;8.17;48.06
72308;BME280;60257;42.638;23.376;2023-04-27T06:51:07;94503.66;;;8.23;47.90
72308;BME280;60257;42.638;23.376;2023-04-27T06:53:33;94490.75;;;8.11;48.59
72308;BME280;60257;42.638;23.376;2023-04-27T06:55:58;94493.66;;;8.06;48.41
72308;BME280;60257;42.638;23.376;2023-04-27T06:58:24;94501.31;;;8.13;47.78
72308;BME280;60257;42.638;23.376;2023-04-27T07:00:49;94498.13;;;8.32;47.42
72308;BME280;60257;42.638;23.376;2023-04-27T07:03:16;94508.63;;;8.21;48.09
72308;BME280;60257;42.638;23.376;2023-04-27T07:05:41;94504.97;;;8.38;48.23
72308;BME280;60257;42.638;23.376;2023-04-27T07:08:07;94487.94;;;8.20;48.28
72308;BME280;60257;42.638;23.376;2023-04-27T07:10:32;94502.78;;;8.31;48.42
72308;BME280;60257;42.638;23.376;2023-04-27T07:12:58;94492.84;;;8.47;47.83
72308;BME280;60257;42.638;23.376;2023-04-27T07:15:23;94485.09;;;8.49;47.74
72308;BME280;60257;42.638;23.376;2023-04-27T07:17:52;94488.47;;;8.92;46.10
72308;BME280;60257;42.638;23.376;2023-04-27T07:20:20;94488.94;;;9.06;46.22
72308;BME280;60257;42.638;23.376;2023-04-27T07:22:46;94497.81;;;9.03;46.45
72308;BME280;60257;42.638;23.376;2023-04-27T07:25:11;94484.63;;;9.05;46.00
72308;BME280;60257;42.638;23.376;2023-04-27T07:27:37;94488.94;;;9.18;46.33
72308;BME280;60257;42.638;23.376;2023-04-27T07:30:03;94473.72;;;9.57;45.38
72308;BME280;60257;42.638;23.376;2023-04-27T07:32:30;94476.16;;;9.86;44.84
72308;BME280;60257;42.638;23.376;2023-04-27T07:34:56;94477.44;;;9.77;45.25
72308;BME280;60257;42.638;23.376;2023-04-27T07:37:22;94473.19;;;9.91;44.80
72308;BME280;60257;42.638;23.376;2023-04-27T07:39:49;94484.41;;;10.26;43.88
72308;BME280;60257;42.638;23.376;2023-04-27T07:42:16;94477.03;;;10.43;43.23
72308;BME280;60257;42.638;23.376;2023-04-27T07:44:42;94486.84;;;10.03;42.88
72308;BME280;60257;42.638;23.376;2023-04-27T07:47:08;94482.53;;;10.30;43.29
72308;BME280;60257;42.638;23.376;2023-04-27T07:49:35;94481.44;;;10.47;42.79
72308;BME280;60257;42.638;23.376;2023-04-27T07:52:02;94491.94;;;10.29;42.85
72308;BME280;60257;42.638;23.376;2023-04-27T07:54:29;94472.88;;;10.49;43.65
72308;BME280;60257;42.638;23.376;2023-04-27T07:56:54;94481.66;;;10.86;40.68
72308;BME280;60257;42.638;23.376;2023-04-27T07:59:20;94482.22;;;10.91;41.01
72308;BME280;60257;42.638;23.376;2023-04-27T08:01:45;94480.34;;;10.95;39.96
72308;BME280;60257;42.638;23.376;2023-04-27T08:04:11;94481.31;;;10.71;40.50
72308;BME280;60257;42.638;23.376;2023-04-27T08:06:37;94478.81;;;10.51;40.82
72308;BME280;60257;42.638;23.376;2023-04-27T08:09:03;94484.56;;;10.61;41.07
72308;BME280;60257;42.638;23.376;2023-04-27T08:11:29;94482.34;;;10.51;41.11
72308;BME280;60257;42.638;23.376;2023-04-27T08:13:54;94485.56;;;10.13;41.82
72308;BME280;60257;42.638;23.376;2023-04-27T08:16:20;94483.59;;;10.26;42.85
72308;BME280;60257;42.638;23.376;2023-04-27T08:18:45;94471.81;;;10.53;42.49
72308;BME280;60257;42.638;23.376;2023-04-27T08:21:11;94482.34;;;10.51;41.78
72308;BME280;60257;42.638;23.376;2023-04-27T08:23:36;94480.50;;;10.71;41.17
72308;BME280;60257;42.638;23.376;2023-04-27T08:26:03;94487.22;;;10.30;41.74
72308;BME280;60257;42.638;23.376;2023-04-27T08:28:28;94487.94;;;10.15;42.06
72308;BME280;60257;42.638;23.376;2023-04-27T08:30:54;94471.81;;;9.97;42.25
72308;BME280;60257;42.638;23.376;2023-04-27T08:33:19;94481.06;;;9.93;43.28
72308;BME280;60257;42.638;23.376;2023-04-27T08:35:45;94481.69;;;9.74;42.82
72308;BME280;60257;42.638;23.376;2023-04-27T08:38:10;94488.44;;;9.64;43.21
72308;BME280;60257;42.638;23.376;2023-04-27T08:40:41;94475.28;;;9.82;43.42
72308;BME280;60257;42.638;23.376;2023-04-27T08:43:07;94485.25;;;10.02;43.08
72308;BME280;60257;42.638;23.376;2023-04-27T08:45:32;94488.78;;;10.03;42.81
72308;BME280;60257;42.638;23.376;2023-04-27T08:47:57;94485.00;;;10.08;42.50
72308;BME280;60257;42.638;23.376;2023-04-27T08:50:23;94488.19;;;10.22;42.33
72308;BME280;60257;42.638;23.376;2023-04-27T08:52:50;94482.88;;;10.57;41.44
72308;BME280;60257;42.638;23.376;2023-04-27T08:55:16;94478.06;;;10.97;41.16
72308;BME280;60257;42.638;23.376;2023-04-27T08:57:55;94485.75;;;11.07;40.79
72308;BME280;60257;42.638;23.376;2023-04-27T09:00:23;94473.28;;;11.10;40.38
72308;BME280;60257;42.638;23.376;2023-04-27T09:02:48;94481.97;;;11.12;39.79
72308;BME280;60257;42.638;23.376;2023-04-27T09:05:18;94474.16;;;11.14;40.58
72308;BME280;60257;42.638;23.376;2023-04-27T09:08:01;94485.75;;;11.07;40.42
72308;BME280;60257;42.638;23.376;2023-04-27T09:10:41;94465.47;;;10.80;40.85
72308;BME280;60257;42.638;23.376;2023-04-27T09:13:07;94474.38;;;10.62;41.00
72308;BME280;60257;42.638;23.376;2023-04-27T09:15:40;94486.63;;;10.96;40.56
72308;BME280;60257;42.638;23.376;2023-04-27T09:18:15;94480.78;;;10.38;41.48
72308;BME280;60257;42.638;23.376;2023-04-27T09:20:51;94479.63;;;10.67;41.62
72308;BME280;60257;42.638;23.376;2023-04-27T09:23:37;94471.94;;;11.04;40.10
72308;BME280;60257;42.638;23.376;2023-04-27T09:26:04;94465.66;;;11.35;39.65
72308;BME280;60257;42.638;23.376;2023-04-27T09:28:33;94462.53;;;11.36;39.46
72308;BME280;60257;42.638;23.376;2023-04-27T09:31:03;94469.16;;;11.51;39.56
72308;BME280;60257;42.638;23.376;2023-04-27T09:33:31;94462.53;;;11.52;38.68
72308;BME280;60257;42.638;23.376;2023-04-27T09:35:58;94460.53;;;11.02;39.90
72308;BME280;60257;42.638;23.376;2023-04-27T09:38:25;94447.69;;;11.22;40.82
72308;BME280;60257;42.638;23.376;2023-04-27T09:40:51;94445.31;;;11.55;40.54
72308;BME280;60257;42.638;23.376;2023-04-27T09:43:17;94453.69;;;11.62;38.67
72308;BME280;60257;42.638;23.376;2023-04-27T09:45:43;94441.59;;;11.47;38.40
72308;BME280;60257;42.638;23.376;2023-04-27T09:48:10;94442.59;;;11.39;38.79
72308;BME280;60257;42.638;23.376;2023-04-27T09:50:44;94442.44;;;11.32;38.82
72308;BME280;60257;42.638;23.376;2023-04-27T09:53:11;94433.44;;;11.00;39.12
72308;BME280;60257;42.638;23.376;2023-04-27T10:01:38;94437.47;;;11.73;39.38
72308;BME280;60257;42.638;23.376;2023-04-27T10:09:27;94436.19;;;12.24;37.03
72308;BME280;60257;42.638;23.376;2023-04-27T10:12:54;94414.56;;;12.42;36.67
72308;BME280;60257;42.638;23.376;2023-04-27T10:15:14;94439.81;;;12.70;35.69
72308;BME280;60257;42.638;23.376;2023-04-27T10:17:48;94429.69;;;12.52;35.29
72308;BME280;60257;42.638;23.376;2023-04-27T10:20:13;94441.03;;;12.50;35.63
72308;BME280;60257;42.638;23.376;2023-04-27T10:22:43;94434.06;;;12.56;35.28
72308;BME280;60257;42.638;23.376;2023-04-27T10:25:21;94437.09;;;12.93;35.17
72308;BME280;60257;42.638;23.376;2023-04-27T10:27:50;94430.00;;;12.92;34.67
72308;BME280;60257;42.638;23.376;2023-04-27T10:30:17;94419.53;;;12.79;34.69
72308;BME280;60257;42.638;23.376;2023-04-27T10:32:54;94429.47;;;12.83;35.08
72308;BME280;60257;42.638;23.376;2023-04-27T10:35:30;94425.34;;;12.96;35.30
72308;BME280;60257;42.638;23.376;2023-04-27T10:40:33;94429.41;;;12.38;34.45
72308;BME280;60257;42.638;23.376;2023-04-27T10:43:12;94440.41;;;12.38;35.34
72308;BME280;60257;42.638;23.376;2023-04-27T10:45:39;94418.13;;;12.23;35.11
72308;BME280;60257;42.638;23.376;2023-04-27T10:48:05;94429.03;;;12.81;34.44
72308;BME280;60257;42.638;23.376;2023-04-27T10:50:31;94415.22;;;13.23;34.19
72308;BME280;60257;42.638;23.376;2023-04-27T10:53:03;94418.69;;;13.20;33.91
72308;BME280;60257;42.638;23.376;2023-04-27T10:55:30;94415.81;;;13.13;33.34
72308;BME280;60257;42.638;23.376;2023-04-27T10:57:56;94422.72;;;13.03;33.48
72308;BME280;60257;42.638;23.376;2023-04-27T11:00:29;94424.75;;;13.06;34.07
72308;BME280;60257;42.638;23.376;2023-04-27T11:02:57;94410.75;;;13.15;33.76
72308;BME280;60257;42.638;23.376;2023-04-27T11:05:25;94426.63;;;13.02;33.66
72308;BME280;60257;42.638;23.376;2023-04-27T11:08:07;94416.16;;;13.34;33.51
72308;BME280;60257;42.638;23.376;2023-04-27T11:10:34;94401.22;;;13.35;33.09
72308;BME280;60257;42.638;23.376;2023-04-27T11:13:21;94407.53;;;13.62;33.08
72308;BME280;60257;42.638;23.376;2023-04-27T11:18:12;94401.84;;;13.52;32.86
72308;BME280;60257;42.638;23.376;2023-04-27T11:20:38;94409.41;;;13.32;32.53
72308;BME280;60257;42.638;23.376;2023-04-27T11:23:03;94409.56;;;12.93;33.58
72308;BME280;60257;42.638;23.376;2023-04-27T11:25:30;94414.81;;;12.79;33.28
72308;BME280;60257;42.638;23.376;2023-04-27T11:27:56;94420.41;;;12.41;34.01
72308;BME280;60257;42.638;23.376;2023-04-27T11:30:22;94426.00;;;12.44;34.88
72308;BME280;60257;42.638;23.376;2023-04-27T11:32:49;94423.63;;;12.65;34.65
72308;BME280;60257;42.638;23.376;2023-04-27T11:35:15;94419.72;;;12.89;34.02
72308;BME280;60257;42.638;23.376;2023-04-27T11:37:42;94429.31;;;12.53;34.41
72308;BME280;60257;42.638;23.376;2023-04-27T11:40:08;94424.56;;;12.73;34.30
72308;BME280;60257;42.638;23.376;2023-04-27T11:42:35;94422.78;;;12.84;34.64
72308;BME280;60257;42.638;23.376;2023-04-27T11:45:03;94426.69;;;13.29;34.27
72308;BME280;60257;42.638;23.376;2023-04-27T11:47:33;94417.75;;;13.35;33.20
72308;BME280;60257;42.638;23.376;2023-04-27T11:50:05;94424.88;;;13.40;33.13
72308;BME280;60257;42.638;23.376;2023-04-27T11:52:33;94434.38;;;13.69;32.52
72308;BME280;60257;42.638;23.376;2023-04-27T11:54:59;94430.41;;;13.66;33.16
72308;BME280;60257;42.638;23.376;2023-04-27T11:57:25;94433.94;;;13.67;33.42
72308;BME280;60257;42.638;23.376;2023-04-27T11:59:55;94424.47;;;13.64;33.71
72308;BME280;60257;42.638;23.376;2023-04-27T12:02:21;94440.16;;;13.34;33.76
72308;BME280;60257;42.638;23.376;2023-04-27T12:04:50;94447.44;;;13.00;33.32
72308;BME280;60257;42.638;23.376;2023-04-27T12:07:16;94442.69;;;13.20;33.50
72308;BME280;60257;42.638;23.376;2023-04-27T12:09:42;94449.44;;;13.03;33.13
72308;BME280;60257;42.638;23.376;2023-04-27T12:12:08;94427.31;;;12.73;33.61
72308;BME280;60257;42.638;23.376;2023-04-27T12:14:34;94443.66;;;12.85;33.80
72308;BME280;60257;42.638;23.376;2023-04-27T12:16:59;94442.41;;;12.83;33.56
72308;BME280;60257;42.638;23.376;2023-04-27T12:19:25;94439.13;;;12.96;33.36
72308;BME280;60257;42.638;23.376;2023-04-27T12:21:51;94446.91;;;13.14;34.37
72308;BME280;60257;42.638;23.376;2023-04-27T12:24:18;94455.19;;;12.94;33.54
72308;BME280;60257;42.638;23.376;2023-04-27T12:26:43;94449.00;;;12.78;33.96
72308;BME280;60257;42.638;23.376;2023-04-27T12:29:09;94453.31;;;12.98;33.98
72308;BME280;60257;42.638;23.376;2023-04-27T12:31:35;94445.72;;;12.92;34.68
72308;BME280;60257;42.638;23.376;2023-04-27T12:34:00;94438.03;;;13.24;33.09
72308;BME280;60257;42.638;23.376;2023-04-27T12:36:26;94436.69;;;13.40;33.23
72308;BME280;60257;42.638;23.376;2023-04-27T12:38:58;94446.31;;;12.82;34.09
72308;BME280;60257;42.638;23.376;2023-04-27T12:41:24;94444.69;;;13.00;33.94
72308;BME280;60257;42.638;23.376;2023-04-27T12:43:50;94443.78;;;13.15;33.69
72308;BME280;60257;42.638;23.376;2023-04-27T12:46:16;94450.56;;;13.21;33.49
72308;BME280;60257;42.638;23.376;2023-04-27T12:48:44;94448.97;;;12.97;33.63
72308;BME280;60257;42.638;23.376;2023-04-27T12:51:10;94461.91;;;12.74;34.21
72308;BME280;60257;42.638;23.376;2023-04-27T12:53:37;94445.78;;;12.72;34.21
72308;BME280;60257;42.638;23.376;2023-04-27T12:56:02;94452.75;;;12.89;33.82
72308;BME280;60257;42.638;23.376;2023-04-27T12:58:29;94460.69;;;12.94;34.44
72308;BME280;60257;42.638;23.376;2023-04-27T13:00:56;94457.91;;;12.91;34.79
72308;BME280;60257;42.638;23.376;2023-04-27T13:03:24;94455.50;;;12.89;34.04
72308;BME280;60257;42.638;23.376;2023-04-27T13:05:50;94451.72;;;12.75;34.99
72308;BME280;60257;42.638;23.376;2023-04-27T13:08:15;94445.53;;;12.39;34.86
72308;BME280;60257;42.638;23.376;2023-04-27T13:10:41;94444.66;;;12.16;35.47